Time;durP1;ratioP1;P1;durP2;ratioP2;P2;SDS_P1;SDS_P2;PMS_P1;PMS_P2;Temp;Humidity;BMP_temperature;BMP_pressure;BME280_temperature;BME280_humidity;BME280_pressure;Samples;Min_cycle;Max_cycle;Signal;HPM_P1;HPM_P2
2022/11/17 00:00:00;;;;;;;86.20;40.10;;;;;;;2.86;100.00;99721.30;105486;1275;59000;-69
2022/11/17 00:02:49;;;;;;;93.60;41.00;;;;;;;2.82;100.00;99720.30;105557;1277;64102;-75
2022/11/17 00:05:18;;;;;;;93.30;41.60;;;;;;;2.81;100.00;99719.35;105415;1269;60835;-72
2022/11/17 00:07:48;;;;;;;80.60;38.40;;;;;;;2.89;100.00;99715.64;105288;1272;59870;-69
2022/11/17 00:10:17;;;;;;;83.60;38.80;;;;;;;2.80;100.00;99707.52;105455;1275;63545;-69
2022/11/17 00:15:33;;;;;;;79.50;38.50;;;;;;;2.77;100.00;99704.06;107576;1276;57186;-70
2022/11/17 00:23:48;;;;;;;73.90;37.40;;;;;;;3.24;100.00;99706.91;107531;1266;69674;-70
2022/11/17 00:26:28;;;;;;;79.80;37.70;;;;;;;3.07;100.00;99705.84;107426;1276;73296;-70
2022/11/17 00:29:00;;;;;;;72.70;35.70;;;;;;;2.96;100.00;99704.69;107351;1269;61493;-68
2022/11/17 00:34:21;;;;;;;78.30;36.90;;;;;;;2.99;100.00;99713.14;107629;1265;72612;-70
2022/11/17 00:36:52;;;;;;;74.70;35.00;;;;;;;2.97;100.00;99718.94;107672;1262;61984;-70
2022/11/17 00:39:22;;;;;;;76.00;37.80;;;;;;;2.91;100.00;99713.77;107633;1271;59252;-71
2022/11/17 00:41:51;;;;;;;76.70;35.10;;;;;;;2.87;100.00;99703.17;107437;1274;63308;-71
2022/11/17 00:44:20;;;;;;;84.90;35.90;;;;;;;2.91;100.00;99703.09;107572;1265;57573;-70
2022/11/17 00:46:49;;;;;;;78.70;37.50;;;;;;;2.84;100.00;99697.48;107455;1273;57359;-70
2022/11/17 00:49:54;;;;;;;85.20;36.40;;;;;;;3.07;100.00;99695.30;107560;1268;73984;-69
2022/11/17 00:52:23;;;;;;;78.20;37.70;;;;;;;3.12;100.00;99709.34;107636;1265;72258;-70
2022/11/17 00:54:52;;;;;;;71.50;33.50;;;;;;;3.13;100.00;99725.23;107548;1265;59856;-69
2022/11/17 00:57:20;;;;;;;73.00;35.70;;;;;;;3.09;100.00;99728.41;107402;1265;73879;-70
2022/11/17 00:59:49;;;;;;;79.10;36.20;;;;;;;3.02;100.00;99723.13;107532;1267;57598;-69
2022/11/17 01:02:18;;;;;;;74.50;35.80;;;;;;;3.05;100.00;99725.21;107441;1272;60513;-70
2022/11/17 01:04:46;;;;;;;76.40;35.70;;;;;;;3.08;100.00;99715.19;107479;1271;73949;-69
2022/11/17 01:07:15;;;;;;;78.50;35.30;;;;;;;3.13;100.00;99712.16;107658;1263;61894;-68
2022/11/17 01:09:44;;;;;;;84.60;39.40;;;;;;;3.13;100.00;99701.35;107498;1265;69668;-69
2022/11/17 01:12:12;;;;;;;82.70;39.60;;;;;;;3.26;100.00;99698.52;107522;1270;72266;-69
2022/11/17 01:14:41;;;;;;;83.50;39.50;;;;;;;3.26;100.00;99700.92;107550;1263;57515;-73
2022/11/17 01:17:09;;;;;;;82.30;36.40;;;;;;;3.21;100.00;99709.12;107417;1273;60448;-69
2022/11/17 01:19:38;;;;;;;84.40;38.10;;;;;;;3.27;100.00;99709.98;107626;1270;63274;-72
2022/11/17 01:22:07;;;;;;;85.80;36.70;;;;;;;3.32;100.00;99709.00;107657;1268;60658;-70
2022/11/17 01:24:35;;;;;;;88.50;36.40;;;;;;;3.25;100.00;99715.07;107652;1270;69716;-72
2022/11/17 01:27:04;;;;;;;84.80;37.60;;;;;;;3.40;100.00;99718.48;107522;1267;63159;-69
2022/11/17 01:29:33;;;;;;;96.20;38.50;;;;;;;3.32;100.00;99715.56;107802;1264;57551;-69
2022/11/17 01:32:01;;;;;;;96.00;40.70;;;;;;;3.30;100.00;99707.04;107615;1262;60145;-71
2022/11/17 01:34:30;;;;;;;89.20;38.30;;;;;;;3.24;100.00;99704.16;107659;1265;62995;-70
2022/11/17 01:39:48;;;;;;;87.70;38.50;;;;;;;2.95;100.00;99700.79;107682;1270;70756;-70
2022/11/17 01:42:21;;;;;;;86.70;38.90;;;;;;;2.75;100.00;99699.86;107585;1269;73721;-70
2022/11/17 01:45:16;;;;;;;88.50;38.10;;;;;;;2.82;100.00;99697.42;107593;1262;62052;-71
2022/11/17 01:48:00;;;;;;;100.50;41.70;;;;;;;2.72;100.00;99694.58;107608;1270;57754;-69
2022/11/17 01:50:33;;;;;;;90.80;39.80;;;;;;;2.83;100.00;99693.93;107654;1265;62933;-70
2022/11/17 01:53:10;;;;;;;101.60;40.30;;;;;;;2.94;100.00;99690.90;107789;1263;60652;-71
2022/11/17 01:56:10;;;;;;;91.80;41.40;;;;;;;3.08;100.00;99687.33;107513;1267;70534;-71
2022/11/17 01:58:45;;;;;;;97.10;41.40;;;;;;;3.08;100.00;99681.46;107773;1265;63845;-70
2022/11/17 02:01:15;;;;;;;83.90;38.00;;;;;;;3.07;100.00;99673.64;107591;1269;57145;-70
2022/11/17 02:03:48;;;;;;;98.70;42.70;;;;;;;3.17;100.00;99668.27;107617;1269;60162;-70
2022/11/17 02:06:29;;;;;;;95.00;43.20;;;;;;;3.16;100.00;99675.55;107407;1273;72784;-70
2022/11/17 02:08:59;;;;;;;94.50;42.10;;;;;;;3.31;100.00;99672.58;107760;1264;72243;-69
2022/11/17 02:11:34;;;;;;;91.50;40.10;;;;;;;3.08;100.00;99665.82;107449;1270;59666;-70
2022/11/17 02:14:04;;;;;;;91.00;42.10;;;;;;;3.13;100.00;99667.96;107459;1267;73770;-72
2022/11/17 02:16:32;;;;;;;101.20;41.60;;;;;;;3.18;100.00;99666.65;107495;1265;61895;-72
2022/11/17 02:19:01;;;;;;;101.50;42.10;;;;;;;3.54;100.00;99666.40;107661;1262;57160;-70
2022/11/17 02:21:48;;;;;;;107.70;45.60;;;;;;;3.58;100.00;99670.27;107675;1274;62233;-72
2022/11/17 02:24:58;;;;;;;90.70;40.40;;;;;;;3.55;100.00;99673.77;107807;1268;72228;-72
2022/11/17 02:27:32;;;;;;;93.20;40.60;;;;;;;3.49;100.00;99671.84;106950;1274;70300;-72
2022/11/17 02:30:09;;;;;;;93.10;39.70;;;;;;;3.42;100.00;99674.33;107110;1275;63896;-72
2022/11/17 02:33:06;;;;;;;87.00;37.90;;;;;;;3.35;100.00;99672.70;107232;1268;57545;-71
2022/11/17 02:36:15;;;;;;;91.50;39.70;;;;;;;3.17;100.00;99673.41;107631;1274;61239;-69
2022/11/17 02:38:57;;;;;;;91.80;39.50;;;;;;;3.12;100.00;99678.66;107616;1262;73360;-70
2022/11/17 02:41:28;;;;;;;91.40;39.70;;;;;;;3.09;100.00;99682.13;107630;1275;72804;-69
2022/11/17 02:44:10;;;;;;;89.50;38.00;;;;;;;3.26;100.00;99677.17;107635;1269;70115;-70
2022/11/17 02:46:46;;;;;;;89.50;39.40;;;;;;;3.36;100.00;99673.48;107497;1268;63602;-70
2022/11/17 02:49:35;;;;;;;80.50;35.60;;;;;;;3.32;100.00;99672.86;107425;1268;61248;-70
2022/11/17 02:52:07;;;;;;;97.90;43.70;;;;;;;3.55;100.00;99666.15;107646;1272;57142;-70
2022/11/17 02:54:35;;;;;;;95.10;40.70;;;;;;;3.77;100.00;99665.03;107472;1265;62433;-72
2022/11/17 02:57:04;;;;;;;77.90;36.40;;;;;;;3.75;100.00;99664.62;107473;1265;61517;-69
2022/11/17 02:59:40;;;;;;;85.30;35.50;;;;;;;3.66;100.00;99661.70;107575;1270;59323;-71
2022/11/17 03:02:36;;;;;;;70.80;29.80;;;;;;;3.68;100.00;99660.53;107518;1270;73912;-70
2022/11/17 03:05:26;;;;;;;83.80;33.50;;;;;;;3.66;100.00;99653.12;107585;1264;61881;-71
2022/11/17 03:08:23;;;;;;;78.90;32.00;;;;;;;3.65;100.00;99651.27;107550;1268;60978;-72
2022/11/17 03:11:05;;;;;;;89.60;34.50;;;;;;;3.77;100.00;99654.52;107545;1269;74249;-71
2022/11/17 03:14:00;;;;;;;83.20;33.40;;;;;;;3.81;100.00;99648.20;107660;1265;61144;-71
2022/11/17 03:16:53;;;;;;;77.40;31.70;;;;;;;3.80;100.00;99637.77;107565;1272;70410;-72
2022/11/17 03:20:00;;;;;;;76.50;31.90;;;;;;;3.85;100.00;99623.16;107449;1271;74326;-71
2022/11/17 03:22:44;;;;;;;78.50;33.10;;;;;;;3.84;100.00;99618.59;107492;1272;62422;-72
2022/11/17 03:25:18;;;;;;;84.00;32.80;;;;;;;4.01;100.00;99624.80;107614;1262;57624;-72
2022/11/17 03:27:52;;;;;;;84.40;34.70;;;;;;;4.01;100.00;99632.52;107462;1268;62233;-70
2022/11/17 03:30:23;;;;;;;81.80;32.00;;;;;;;4.00;100.00;99633.09;107662;1264;72117;-70
2022/11/17 03:32:58;;;;;;;71.30;29.50;;;;;;;4.01;100.00;99632.88;107588;1269;71128;-69
2022/11/17 03:35:32;;;;;;;81.20;30.90;;;;;;;4.02;100.00;99628.84;107438;1274;62302;-70
2022/11/17 03:38:09;;;;;;;76.00;30.90;;;;;;;4.00;100.00;99619.52;107509;1268;57069;-70
2022/11/17 03:40:42;;;;;;;73.00;31.60;;;;;;;3.95;100.00;99619.12;107568;1274;60409;-76
2022/11/17 03:43:14;;;;;;;75.70;31.10;;;;;;;3.96;100.00;99620.77;107570;1267;62194;-71
2022/11/17 03:45:54;;;;;;;80.80;30.80;;;;;;;3.95;100.00;99622.87;107627;1265;61575;-70
2022/11/17 03:48:39;;;;;;;71.60;31.40;;;;;;;4.08;100.00;99622.77;107608;1263;59081;-71
2022/11/17 03:51:19;;;;;;;85.90;33.60;;;;;;;4.13;100.00;99621.63;107562;1267;63223;-71
2022/11/17 03:53:49;;;;;;;80.90;31.50;;;;;;;4.10;100.00;99622.52;107527;1268;57592;-72
2022/11/17 03:56:54;;;;;;;77.60;29.40;;;;;;;4.25;100.00;99619.13;107478;1269;57682;-71
2022/11/17 03:59:23;;;;;;;75.70;29.50;;;;;;;4.21;100.00;99620.23;107615;1267;71751;-73
2022/11/17 04:01:52;;;;;;;73.30;30.80;;;;;;;4.24;100.00;99623.34;107771;1259;62182;-70
2022/11/17 04:04:23;;;;;;;71.00;28.90;;;;;;;4.30;100.00;99624.34;107572;1257;71586;-71
2022/11/17 04:06:54;;;;;;;77.90;31.20;;;;;;;4.29;100.00;99626.31;107639;1270;74470;-71
2022/11/17 04:09:23;;;;;;;77.60;31.70;;;;;;;4.27;100.00;99629.34;107642;1261;62805;-71
2022/11/17 04:17:26;;;;;;;77.70;28.90;;;;;;;4.31;100.00;99617.89;107779;1261;61595;-71
2022/11/17 04:19:55;;;;;;;69.20;28.80;;;;;;;4.36;100.00;99614.15;107791;1263;60974;-70
2022/11/17 04:22:23;;;;;;;71.10;28.70;;;;;;;4.35;100.00;99610.92;107603;1270;73874;-70
2022/11/17 04:24:52;;;;;;;71.40;30.70;;;;;;;4.22;100.00;99608.42;107625;1266;57495;-70
2022/11/17 04:30:09;;;;;;;68.10;29.20;;;;;;;4.16;100.00;99608.65;107643;1266;73243;-71
2022/11/17 04:32:37;;;;;;;75.10;30.40;;;;;;;4.21;100.00;99605.91;107644;1263;63220;-71
2022/11/17 04:35:07;;;;;;;74.30;30.60;;;;;;;4.25;100.00;99601.04;107637;1264;60458;-71
2022/11/17 04:37:35;;;;;;;77.50;30.20;;;;;;;4.32;100.00;99602.50;107634;1263;63859;-71
2022/11/17 04:40:05;;;;;;;73.10;31.90;;;;;;;4.38;100.00;99601.94;107654;1265;57077;-71
2022/11/17 04:42:34;;;;;;;68.00;29.40;;;;;;;4.33;100.00;99600.50;107452;1266;432438;-72
2022/11/17 04:45:03;;;;;;;81.30;32.60;;;;;;;4.35;100.00;99599.70;107589;1262;74112;-71
2022/11/17 04:47:31;;;;;;;76.60;31.70;;;;;;;4.37;100.00;99598.02;107570;1255;62048;-71
2022/11/17 04:50:00;;;;;;;80.90;36.20;;;;;;;4.35;100.00;99596.76;107635;1270;69079;-71
2022/11/17 04:52:28;;;;;;;78.30;33.50;;;;;;;4.47;100.00;99597.35;107588;1272;73068;-72
2022/11/17 04:54:57;;;;;;;75.30;33.00;;;;;;;4.42;100.00;99593.06;107624;1270;57724;-69
2022/11/17 04:57:26;;;;;;;70.70;31.60;;;;;;;4.31;100.00;99591.70;107477;1271;60234;-74
2022/11/17 04:59:54;;;;;;;69.80;34.20;;;;;;;4.13;100.00;99588.88;107566;1267;73566;-69
2022/11/17 05:02:23;;;;;;;68.80;33.20;;;;;;;3.97;100.00;99589.52;107798;1262;62086;-69
2022/11/17 05:04:55;;;;;;;72.70;34.80;;;;;;;3.85;100.00;99592.02;107678;1271;68923;-71
2022/11/17 05:07:23;;;;;;;79.00;36.60;;;;;;;3.72;100.00;99596.25;107793;1262;64779;-70
2022/11/17 05:09:52;;;;;;;75.10;38.20;;;;;;;3.79;100.00;99595.66;107695;1257;57588;-75
2022/11/17 05:15:08;;;;;;;84.00;39.40;;;;;;;3.91;100.00;99601.48;107621;1270;64201;-70
2022/11/17 05:17:36;;;;;;;85.40;38.90;;;;;;;4.07;100.00;99598.72;107631;1257;71787;-69
2022/11/17 05:20:05;;;;;;;82.90;36.30;;;;;;;3.99;100.00;99598.84;107662;1262;59795;-76
2022/11/17 05:25:21;;;;;;;86.60;39.60;;;;;;;4.24;100.00;99591.27;107691;1266;57598;-70
2022/11/17 05:27:52;;;;;;;85.90;40.30;;;;;;;4.26;100.00;99589.91;107630;1266;60243;-69
2022/11/17 05:30:20;;;;;;;87.40;39.10;;;;;;;4.09;100.00;99585.02;107674;1262;72892;-71
2022/11/17 05:32:49;;;;;;;84.90;40.00;;;;;;;4.18;100.00;99586.98;107844;1262;61925;-70
2022/11/17 05:35:17;;;;;;;83.00;39.70;;;;;;;4.21;100.00;99580.63;107659;1270;70480;-71
2022/11/17 05:37:46;;;;;;;89.80;42.80;;;;;;;4.23;100.00;99576.99;107650;1266;63046;-70
2022/11/17 05:40:15;;;;;;;82.20;40.40;;;;;;;4.38;100.00;99577.11;107671;1270;62148;-71
2022/11/17 05:42:43;;;;;;;95.40;45.60;;;;;;;4.34;100.00;99573.91;107650;1266;60829;-69
2022/11/17 05:45:12;;;;;;;85.90;42.30;;;;;;;4.30;100.00;99563.13;107532;1268;64461;-70
2022/11/17 05:47:40;;;;;;;83.00;39.20;;;;;;;4.37;100.00;99562.48;107649;1263;71326;-70
2022/11/17 05:50:09;;;;;;;85.00;41.40;;;;;;;4.40;100.00;99557.34;107684;1262;60323;-69
2022/11/17 05:52:38;;;;;;;87.10;35.90;;;;;;;4.39;100.00;99558.23;107579;1260;63262;-71
2022/11/17 05:55:07;;;;;;;77.40;37.90;;;;;;;4.52;100.00;99554.78;107665;1274;62184;-71
2022/11/17 05:57:35;;;;;;;78.60;36.30;;;;;;;4.48;100.00;99549.91;107668;1261;57723;-70
2022/11/17 06:00:05;;;;;;;75.00;33.20;;;;;;;4.58;100.00;99545.98;107552;1260;71583;-70
2022/11/17 06:02:49;;;;;;;70.90;31.20;;;;;;;4.64;100.00;99537.48;107838;1263;71219;-71
2022/11/17 06:05:18;;;;;;;66.20;27.60;;;;;;;4.62;100.00;99538.98;107518;1264;60604;-70
2022/11/17 06:07:48;;;;;;;54.70;23.90;;;;;;;4.63;100.00;99536.51;107545;1276;73109;-71
2022/11/17 06:10:17;;;;;;;71.00;29.80;;;;;;;4.61;100.00;99535.44;107523;1264;57472;-71
2022/11/17 06:12:46;;;;;;;67.30;28.50;;;;;;;4.69;100.00;99539.36;107582;1268;57059;-71
2022/11/17 06:15:15;;;;;;;65.60;29.00;;;;;;;4.87;100.00;99540.40;107524;1269;62558;-71
2022/11/17 06:18:02;;;;;;;58.80;24.30;;;;;;;4.84;100.00;99536.48;107587;1266;61582;-71
2022/11/17 06:20:37;;;;;;;56.00;25.10;;;;;;;4.81;100.00;99537.73;107672;1266;59990;-71
2022/11/17 06:23:08;;;;;;;57.40;26.20;;;;;;;4.75;100.00;99534.61;107590;1263;72862;-71
2022/11/17 06:25:38;;;;;;;60.90;25.40;;;;;;;4.79;100.00;99526.78;107490;1274;62439;-71
2022/11/17 06:28:12;;;;;;;61.70;24.90;;;;;;;4.83;100.00;99522.05;107628;1266;60996;-71
2022/11/17 06:30:42;;;;;;;54.20;26.10;;;;;;;4.92;100.00;99519.86;107391;1266;74067;-71
2022/11/17 06:33:14;;;;;;;58.80;25.20;;;;;;;4.91;100.00;99519.92;107765;1266;73092;-71
2022/11/17 06:35:44;;;;;;;59.60;26.00;;;;;;;4.86;100.00;99516.70;107356;1270;70838;-70
2022/11/17 06:38:12;;;;;;;59.00;26.10;;;;;;;4.71;100.00;99506.47;107472;1265;72965;-71
2022/11/17 06:40:41;;;;;;;57.60;24.70;;;;;;;4.75;100.00;99508.80;107468;1268;57722;-73
2022/11/17 06:43:10;;;;;;;65.60;28.60;;;;;;;4.72;100.00;99501.89;107535;1261;57162;-71
2022/11/17 06:45:45;;;;;;;54.30;24.20;;;;;;;4.75;100.00;99497.04;107516;1261;73594;-71
2022/11/17 06:48:16;;;;;;;62.80;25.50;;;;;;;4.70;100.00;99489.47;107558;1272;72493;-72
2022/11/17 06:50:47;;;;;;;58.50;25.50;;;;;;;4.75;100.00;99486.49;107563;1264;60204;-72
2022/11/17 06:53:16;;;;;;;57.10;23.80;;;;;;;4.74;100.00;99487.27;107459;1266;64881;-72
2022/11/17 06:56:31;;;;;;;63.10;25.50;;;;;;;4.82;100.00;99490.06;107387;1265;61753;-70
2022/11/17 06:58:59;;;;;;;55.70;25.50;;;;;;;4.89;100.00;99491.45;107523;1274;61558;-71
2022/11/17 07:01:28;;;;;;;59.20;26.30;;;;;;;4.87;100.00;99487.78;107463;1266;62755;-72
2022/11/17 07:03:57;;;;;;;62.60;25.70;;;;;;;4.92;100.00;99490.55;107671;1260;61566;-71
2022/11/17 07:06:26;;;;;;;64.70;28.40;;;;;;;4.95;100.00;99484.12;107621;1260;69574;-71
2022/11/17 07:08:54;;;;;;;152.60;53.70;;;;;;;5.07;100.00;99489.16;107596;1270;72821;-71
2022/11/17 07:11:23;;;;;;;95.60;35.30;;;;;;;4.98;100.00;99490.85;107621;1270;57410;-71
2022/11/17 07:13:52;;;;;;;54.20;24.70;;;;;;;4.96;100.00;99487.55;107507;1265;60368;-71
2022/11/17 07:16:20;;;;;;;277.40;79.40;;;;;;;5.02;100.00;99485.92;107622;1265;74071;-70
2022/11/17 07:18:52;;;;;;;97.90;44.80;;;;;;;5.00;100.00;99482.92;107648;1259;61624;-70
2022/11/17 07:21:21;;;;;;;60.60;25.60;;;;;;;5.03;100.00;99483.27;107688;1265;69795;-73
2022/11/17 07:23:50;;;;;;;67.80;29.30;;;;;;;5.10;100.00;99480.50;107552;1272;73862;-70
2022/11/17 07:26:19;;;;;;;65.00;26.00;;;;;;;5.13;100.00;99479.98;107652;1268;62459;-73
2022/11/17 07:28:47;;;;;;;74.80;27.10;;;;;;;5.19;100.00;99473.02;107518;1270;60723;-70
2022/11/17 07:31:16;;;;;;;51.80;23.50;;;;;;;5.27;100.00;99468.60;107609;1262;64272;-69
2022/11/17 07:33:45;;;;;;;76.60;27.80;;;;;;;5.27;100.00;99460.47;107700;1266;62145;-70
2022/11/17 07:36:15;;;;;;;61.00;27.50;;;;;;;5.33;100.00;99454.39;107670;1265;59950;-70
2022/11/17 07:38:44;;;;;;;58.30;24.30;;;;;;;5.30;100.00;99449.91;107616;1266;73022;-71
2022/11/17 07:41:13;;;;;;;58.20;23.30;;;;;;;5.39;100.00;99448.08;107469;1268;60878;-70
2022/11/17 07:43:42;;;;;;;46.40;22.20;;;;;;;5.45;100.00;99450.23;107447;1267;57719;-70
2022/11/17 07:46:13;;;;;;;57.00;22.30;;;;;;;5.48;100.00;99447.79;107536;1272;72866;-71
2022/11/17 07:48:43;;;;;;;54.40;23.50;;;;;;;5.43;100.00;99449.89;107297;1254;71320;-72
2022/11/17 07:51:12;;;;;;;47.60;19.70;;;;;;;5.35;100.00;99449.61;107317;1261;70307;-70
2022/11/17 07:53:42;;;;;;;58.20;22.90;;;;;;;5.50;100.00;99457.68;107446;1272;65343;-70
2022/11/17 07:56:11;;;;;;;92.00;24.60;;;;;;;5.60;100.00;99459.38;107251;1270;62098;-71
2022/11/17 07:58:40;;;;;;;45.80;19.60;;;;;;;5.52;100.00;99454.56;107378;1267;58736;-73
2022/11/17 08:01:16;;;;;;;47.40;21.50;;;;;;;5.56;100.00;99451.22;107371;1266;71826;-70
2022/11/17 08:03:45;;;;;;;41.30;19.20;;;;;;;5.61;100.00;99445.14;107404;1262;72346;-71
2022/11/17 08:06:15;;;;;;;83.00;25.60;;;;;;;5.58;100.00;99442.42;107552;1266;70412;-71
2022/11/17 08:08:44;;;;;;;83.70;24.50;;;;;;;5.60;100.00;99440.02;107507;1265;63297;-70
2022/11/17 08:11:13;;;;;;;84.60;24.80;;;;;;;5.65;100.00;99446.39;107624;1264;57754;-71
2022/11/17 08:13:42;;;;;;;68.60;23.10;;;;;;;5.68;100.00;99448.80;107543;1265;57612;-71
2022/11/17 08:16:11;;;;;;;50.70;22.20;;;;;;;5.70;100.00;99447.27;107512;1267;72537;-72
2022/11/17 08:18:40;;;;;;;53.40;21.80;;;;;;;5.67;100.00;99448.88;107501;1266;62125;-72
2022/11/17 08:21:14;;;;;;;63.40;21.50;;;;;;;5.59;100.00;99445.11;107433;1265;70598;-72
2022/11/17 08:23:43;;;;;;;61.60;22.10;;;;;;;5.65;100.00;99445.72;107491;1261;72042;-72
2022/11/17 08:26:12;;;;;;;46.90;21.00;;;;;;;5.67;100.00;99448.73;107631;1270;61202;-72
2022/11/17 08:28:41;;;;;;;155.30;32.60;;;;;;;5.66;100.00;99450.89;107631;1265;57733;-70
2022/11/17 08:31:10;;;;;;;345.20;45.90;;;;;;;5.73;100.00;99451.52;107697;1261;63026;-75
2022/11/17 08:33:38;;;;;;;832.20;93.60;;;;;;;5.80;100.00;99450.84;107501;1262;72297;-70
2022/11/17 08:36:07;;;;;;;432.70;56.70;;;;;;;5.81;100.00;99449.59;107645;1261;61224;-71
2022/11/17 08:38:36;;;;;;;111.50;25.60;;;;;;;5.72;100.00;99449.25;107670;1270;63215;-70
2022/11/17 08:41:08;;;;;;;84.70;24.00;;;;;;;5.69;100.00;99444.59;107642;1263;57998;-71
2022/11/17 08:43:37;;;;;;;300.40;45.90;;;;;;;5.68;100.00;99440.30;107464;1265;57657;-71
2022/11/17 08:46:13;;;;;;;454.90;58.00;;;;;;;5.67;100.00;99441.50;107685;1263;62914;-70
2022/11/17 08:48:41;;;;;;;54.90;21.10;;;;;;;5.65;100.00;99443.52;107838;1262;71384;-70
2022/11/17 08:51:12;;;;;;;324.60;40.30;;;;;;;5.59;100.00;99446.33;107635;1267;59799;-70
2022/11/17 08:53:41;;;;;;;654.20;79.70;;;;;;;5.58;100.00;99443.41;107433;1266;63712;-72
2022/11/17 08:56:11;;;;;;;903.30;109.40;;;;;;;5.74;100.00;99443.55;107455;1267;62201;-71
2022/11/17 08:58:42;;;;;;;364.10;48.60;;;;;;;5.83;100.00;99439.23;107486;1264;57161;-71
2022/11/17 09:01:14;;;;;;;262.60;39.10;;;;;;;5.80;100.00;99433.78;107580;1260;62040;-68
2022/11/17 09:03:45;;;;;;;41.20;18.90;;;;;;;5.73;100.00;99435.48;107685;1259;71481;-73
2022/11/17 09:06:15;;;;;;;37.50;19.70;;;;;;;5.65;100.00;99432.09;107642;1266;61117;-71
2022/11/17 09:08:45;;;;;;;51.40;19.30;;;;;;;5.58;100.00;99426.86;107732;1266;63395;-71
2022/11/17 09:11:15;;;;;;;45.20;19.10;;;;;;;5.58;100.00;99422.89;107593;1262;61888;-69
2022/11/17 09:13:45;;;;;;;34.10;16.40;;;;;;;5.58;100.00;99419.08;107589;1268;57072;-73
2022/11/17 09:16:15;;;;;;;139.60;25.30;;;;;;;5.59;100.00;99416.66;107580;1270;73592;-73
2022/11/17 09:18:44;;;;;;;30.10;14.60;;;;;;;5.52;100.00;99414.89;107698;1260;62056;-73
2022/11/17 09:21:15;;;;;;;40.50;15.30;;;;;;;5.51;100.00;99411.82;107562;1269;60107;-74
2022/11/17 09:23:44;;;;;;;35.70;15.90;;;;;;;5.53;100.00;99409.96;107552;1264;73946;-73
2022/11/17 09:26:14;;;;;;;39.10;16.00;;;;;;;5.53;100.00;99411.02;107581;1273;63199;-74
2022/11/17 09:28:43;;;;;;;32.50;14.70;;;;;;;5.55;100.00;99408.11;107640;1268;57137;-76
2022/11/17 09:31:18;;;;;;;105.80;24.80;;;;;;;5.59;100.00;99405.04;107532;1268;62476;-73
2022/11/17 09:33:46;;;;;;;69.90;19.60;;;;;;;5.62;100.00;99402.08;107843;1257;71373;-74
2022/11/17 09:36:16;;;;;;;34.70;17.60;;;;;;;5.68;100.00;99402.72;107515;1264;61243;-74
2022/11/17 09:38:45;;;;;;;61.20;17.80;;;;;;;5.69;100.00;99400.14;107563;1255;73886;-75
2022/11/17 09:41:14;;;;;;;27.00;13.70;;;;;;;5.69;100.00;99400.17;107660;1265;57637;-75
2022/11/17 09:44:14;;;;;;;35.10;15.90;;;;;;;5.65;100.00;99398.98;107682;1265;57687;-75
2022/11/17 09:47:25;;;;;;;32.00;15.60;;;;;;;5.62;100.00;99397.41;107425;1270;72769;-75
2022/11/17 09:50:33;;;;;;;46.50;17.70;;;;;;;5.60;100.00;99395.84;107696;1268;60980;-74
2022/11/17 09:53:04;;;;;;;25.60;12.80;;;;;;;5.59;100.00;99390.87;107675;1258;59285;-75
2022/11/17 09:55:42;;;;;;;45.70;16.90;;;;;;;5.61;100.00;99389.55;107568;1262;73737;-76
2022/11/17 09:58:55;;;;;;;28.50;14.20;;;;;;;5.60;100.00;99392.55;107401;1268;61367;-74
2022/11/17 10:01:27;;;;;;;38.70;14.90;;;;;;;5.64;100.00;99393.34;107489;1260;60469;-75
2022/11/17 10:04:15;;;;;;;29.40;13.50;;;;;;;5.62;100.00;99391.18;107423;1273;63540;-75
2022/11/17 10:07:02;;;;;;;28.10;14.00;;;;;;;5.67;100.00;99387.89;107696;1263;71296;-76
2022/11/17 10:09:43;;;;;;;34.40;18.40;;;;;;;5.69;100.00;99386.38;107358;1262;61476;-73
2022/11/17 10:12:24;;;;;;;29.50;13.90;;;;;;;5.71;100.00;99389.85;107330;1266;73753;-72
2022/11/17 10:14:54;;;;;;;39.40;14.90;;;;;;;5.66;100.00;99385.73;107626;1261;57716;-72
2022/11/17 10:17:23;;;;;;;36.10;14.30;;;;;;;5.71;100.00;99387.77;107488;1261;60300;-72
2022/11/17 10:19:52;;;;;;;26.60;13.60;;;;;;;5.72;100.00;99389.58;107675;1272;62585;-73
2022/11/17 10:22:33;;;;;;;98.30;19.90;;;;;;;5.78;100.00;99387.60;107792;1263;71464;-72
2022/11/17 10:25:02;;;;;;;147.20;23.20;;;;;;;5.82;100.00;99385.23;107531;1264;60683;-72
2022/11/17 10:27:33;;;;;;;40.50;15.60;;;;;;;5.93;100.00;99385.45;107654;1261;62545;-71
2022/11/17 10:30:22;;;;;;;47.10;17.30;;;;;;;5.86;100.00;99383.41;107617;1267;57180;-74
2022/11/17 10:32:54;;;;;;;181.00;30.90;;;;;;;5.82;100.00;99380.39;107651;1274;57167;-73
2022/11/17 10:35:25;;;;;;;54.20;17.30;;;;;;;5.90;100.00;99382.07;107717;1260;62175;-72
2022/11/17 10:38:07;;;;;;;69.70;17.20;;;;;;;5.84;100.00;99379.89;107803;1263;60705;-73
2022/11/17 10:40:38;;;;;;;39.30;16.70;;;;;;;5.90;100.00;99380.53;107542;1264;69572;-72
2022/11/17 10:43:14;;;;;;;243.90;39.40;;;;;;;5.98;100.00;99380.79;107610;1261;63547;-73
2022/11/17 10:45:52;;;;;;;26.80;14.20;;;;;;;5.93;100.00;99374.60;107642;1265;57165;-74
2022/11/17 10:48:36;;;;;;;39.40;14.50;;;;;;;5.87;100.00;99380.18;107623;1263;62061;-73
2022/11/17 10:51:18;;;;;;;156.50;26.50;;;;;;;5.91;100.00;99384.23;107485;1271;74092;-71
2022/11/17 10:54:22;;;;;;;100.30;22.20;;;;;;;6.01;100.00;99385.04;107578;1261;70942;-73
2022/11/17 10:56:53;;;;;;;;;;;;;;;5.95;100.00;99384.50;107209;1265;68997;-73
2022/11/17 10:59:47;;;;;;;44.40;19.20;;;;;;;5.92;100.00;99382.30;107346;1268;63178;-72
2022/11/17 11:02:39;;;;;;;119.60;23.10;;;;;;;5.91;100.00;99378.37;107468;1255;62930;-74
2022/11/17 11:05:28;;;;;;;109.70;24.20;;;;;;;6.03;100.00;99376.44;107425;1258;62314;-72
2022/11/17 11:08:22;;;;;;;45.00;15.40;;;;;;;6.09;100.00;99379.65;107375;1262;74839;-71
2022/11/17 11:11:49;;;;;;;32.80;14.20;;;;;;;5.73;100.00;99375.35;107624;1262;73152;-72
2022/11/17 11:14:44;;;;;;;23.70;12.20;;;;;;;5.61;100.00;99376.72;107402;1271;60886;-73
2022/11/17 11:17:17;;;;;;;20.40;11.30;;;;;;;5.61;100.00;99376.56;107357;1268;63284;-72
2022/11/17 11:19:56;;;;;;;22.40;14.30;;;;;;;5.54;100.00;99373.10;107496;1270;62914;-73
2022/11/17 11:23:05;;;;;;;84.30;23.20;;;;;;;5.52;100.00;99371.88;107501;1259;57800;-71
2022/11/17 11:25:44;;;;;;;15.30;10.50;;;;;;;5.42;100.00;99370.05;107484;1268;73336;-72
2022/11/17 11:28:59;;;;;;;17.60;11.40;;;;;;;5.41;100.00;99373.23;107545;1262;61608;-72
2022/11/17 11:32:01;;;;;;;16.00;10.20;;;;;;;5.34;100.00;99379.07;107508;1267;59899;-71
2022/11/17 11:34:36;;;;;;;45.40;15.90;;;;;;;5.28;100.00;99375.48;107421;1262;63154;-73
2022/11/17 11:37:14;;;;;;;31.10;13.10;;;;;;;5.27;100.00;99374.41;107461;1263;61286;-70
2022/11/17 11:40:20;;;;;;;20.90;11.50;;;;;;;5.21;100.00;99379.09;107380;1268;57680;-72
2022/11/17 11:42:59;;;;;;;57.10;15.50;;;;;;;5.20;100.00;99382.64;107568;1265;63860;-73
2022/11/17 11:46:11;;;;;;;19.30;11.60;;;;;;;5.23;100.00;99381.23;107667;1257;72613;-71
2022/11/17 11:48:40;;;;;;;42.10;13.60;;;;;;;5.21;100.00;99385.01;107573;1258;60678;-71
2022/11/17 11:51:27;;;;;;;29.00;12.60;;;;;;;5.17;100.00;99379.05;107387;1267;62321;-71
2022/11/17 11:54:08;;;;;;;26.40;11.60;;;;;;;5.22;100.00;99367.89;107553;1258;57767;-72
2022/11/17 11:56:41;;;;;;;58.00;16.30;;;;;;;5.22;100.00;99372.84;107403;1265;61220;-71
2022/11/17 11:59:37;;;;;;;34.70;12.30;;;;;;;5.26;100.00;99368.92;107511;1261;74391;-72
2022/11/17 12:02:35;;;;;;;17.30;10.00;;;;;;;5.28;100.00;99375.86;107647;1259;62090;-74
2022/11/17 12:05:25;;;;;;;18.00;10.00;;;;;;;5.26;100.00;99386.86;107625;1262;70555;-72
2022/11/17 12:08:23;;;;;;;17.20;10.80;;;;;;;5.31;100.00;99377.89;107457;1263;74243;-71
2022/11/17 12:11:58;;;;;;;33.20;14.20;;;;;;;5.34;100.00;99380.83;107432;1261;58353;-71
2022/11/17 12:13:53;;;;;;;21.40;11.40;;;;;;;5.36;100.00;99383.27;107439;1262;61063;-72